createdAt,value
2023-01-20T00:04:39.929Z,73.87
2023-01-20T00:09:41.988Z,74.32
2023-01-20T00:14:42.638Z,74.58
2023-01-20T00:19:43.308Z,74.68
2023-01-20T00:24:45.332Z,74.59
2023-01-20T00:29:46.766Z,74.83
2023-01-20T00:34:47.438Z,74.70
2023-01-20T00:39:49.456Z,74.84
2023-01-20T00:44:50.211Z,74.17
2023-01-20T00:49:50.980Z,74.60
2023-01-20T00:54:52.972Z,74.60
2023-01-20T00:59:53.765Z,74.11
2023-01-20T01:04:54.455Z,74.24
2023-01-20T01:09:56.444Z,74.58
2023-01-20T01:14:57.112Z,75.09
2023-01-20T01:19:57.791Z,75.22
2023-01-20T01:24:59.811Z,74.36
2023-01-20T01:30:00.618Z,75.74
2023-01-20T01:35:01.322Z,75.61
2023-01-20T01:40:03.357Z,74.82
2023-01-20T01:45:23.218Z,75.34
2023-01-20T01:50:27.192Z,75.25
2023-01-20T01:55:32.229Z,75.29
2023-01-20T02:00:32.966Z,75.33
2023-01-20T02:05:36.341Z,76.56
2023-01-20T02:10:38.354Z,77.86
2023-01-20T02:15:45.857Z,78.53
2023-01-20T02:21:16.274Z,79.28
2023-01-20T02:26:39.460Z,79.28
2023-01-20T02:32:15.339Z,79.52
2023-01-20T02:37:20.085Z,80.46
2023-01-20T02:42:26.030Z,80.05
2023-01-20T02:47:34.321Z,80.16
2023-01-20T02:52:39.452Z,81.31
2023-01-20T02:57:44.343Z,80.94
2023-01-20T03:02:49.426Z,81.02
2023-01-20T03:07:53.009Z,81.58
2023-01-20T03:12:58.065Z,81.86
2023-01-20T03:18:00.137Z,81.86
2023-01-20T03:23:00.832Z,82.47
2023-01-20T03:28:01.580Z,83.28
2023-01-20T03:33:04.774Z,83.83
2023-01-20T03:38:05.505Z,84.62
2023-01-20T03:43:12.945Z,84.08
2023-01-20T03:48:21.049Z,85.39
2023-01-20T03:53:32.890Z,85.46
2023-01-20T03:58:37.851Z,85.77
2023-01-20T04:03:43.709Z,86.16
2023-01-20T04:08:48.049Z,86.45
2023-01-20T04:13:48.759Z,87.11
2023-01-20T04:18:52.541Z,87.18
2023-01-20T04:23:58.862Z,87.73
2023-01-20T04:28:59.592Z,87.89
2023-01-20T04:34:01.683Z,87.71
2023-01-20T04:39:02.338Z,88.59
2023-01-20T04:44:02.974Z,89.04
2023-01-20T04:49:05.003Z,88.92
2023-01-20T04:54:06.037Z,88.73
2023-01-20T04:59:06.678Z,89.14
2023-01-20T05:04:08.693Z,89.87
2023-01-20T05:09:10.803Z,90.41
2023-01-20T05:14:12.418Z,90.50
2023-01-20T05:19:14.648Z,91.46
2023-01-20T05:24:15.371Z,90.19
2023-01-20T05:29:16.068Z,90.13
2023-01-20T05:34:18.150Z,89.93
2023-01-20T05:39:18.938Z,90.25
2023-01-20T05:44:19.602Z,89.98
2023-01-20T05:49:21.600Z,89.68
2023-01-20T05:54:22.818Z,89.76
2023-01-20T05:59:24.672Z,89.96
2023-01-20T06:04:26.837Z,89.17
2023-01-20T06:09:27.482Z,89.68
2023-01-20T06:14:28.148Z,89.83
2023-01-20T06:19:30.166Z,89.94
2023-01-20T06:24:30.938Z,89.57
2023-01-20T06:29:31.792Z,89.97
2023-01-20T06:34:33.832Z,89.62
2023-01-20T06:39:34.527Z,89.21
2023-01-20T06:44:35.184Z,89.87
2023-01-20T06:49:37.191Z,89.34
2023-01-20T06:54:37.848Z,89.77
2023-01-20T06:59:38.565Z,89.27
2023-01-20T07:04:40.724Z,89.51
2023-01-20T07:09:41.414Z,89.02
2023-01-20T07:14:42.113Z,88.48
2023-01-20T07:19:44.106Z,88.50
2023-01-20T07:24:44.763Z,88.63
2023-01-20T07:29:45.419Z,88.44
2023-01-20T07:34:50.084Z,88.83
2023-01-20T07:39:50.928Z,89.71
2023-01-20T07:44:51.601Z,89.30
2023-01-20T07:49:53.562Z,89.39
2023-01-20T07:54:54.317Z,88.60
2023-01-20T07:59:55.138Z,88.99
2023-01-20T08:04:57.421Z,88.35
2023-01-20T08:09:58.682Z,88.40
2023-01-20T08:14:59.641Z,88.03
2023-01-20T08:20:01.681Z,87.71
2023-01-20T08:25:02.366Z,87.11
2023-01-20T08:30:03.095Z,86.77
2023-01-20T08:35:05.618Z,86.64
2023-01-20T08:40:08.519Z,85.99
2023-01-20T08:45:10.323Z,85.80
2023-01-20T08:50:15.271Z,85.26
2023-01-20T08:55:16.246Z,85.61
2023-01-20T09:00:18.374Z,84.88
2023-01-20T09:05:22.287Z,85.51
2023-01-20T09:10:23.030Z,85.64
2023-01-20T09:15:25.527Z,85.68
2023-01-20T09:20:28.897Z,84.46
2023-01-20T09:25:29.723Z,84.08
2023-01-20T09:30:30.466Z,84.64
2023-01-20T09:35:32.532Z,83.96
2023-01-20T09:40:56.927Z,83.72
2023-01-20T09:46:02.324Z,83.24
2023-01-20T09:51:27.937Z,83.73
2023-01-20T09:56:31.946Z,83.67
2023-01-20T10:01:40.478Z,83.71
2023-01-20T10:06:46.657Z,83.46
2023-01-20T10:11:49.672Z,83.00
2023-01-20T10:16:56.684Z,83.71
2023-01-20T10:22:07.471Z,82.99
2023-01-20T10:27:08.200Z,82.98
2023-01-20T10:32:17.200Z,82.82
2023-01-20T10:37:19.994Z,83.11
2023-01-20T10:42:21.668Z,82.95
2023-01-20T10:47:31.580Z,82.74
2023-01-20T10:52:46.383Z,82.75
2023-01-20T10:57:53.424Z,81.73
2023-01-20T11:02:59.118Z,81.68
2023-01-20T11:08:03.675Z,81.80
2023-01-20T11:13:05.069Z,81.72
2023-01-20T11:18:23.721Z,81.14
2023-01-20T11:23:35.299Z,81.37
2023-01-20T11:28:45.856Z,80.74
2023-01-20T11:33:59.265Z,80.60
2023-01-20T11:39:01.772Z,80.34
2023-01-20T11:44:02.586Z,80.63
2023-01-20T11:49:19.847Z,80.50
2023-01-20T11:54:24.794Z,80.32
2023-01-20T11:59:28.452Z,80.03
2023-01-20T12:04:50.768Z,79.71
2023-01-20T12:09:56.685Z,79.68
2023-01-20T12:15:04.163Z,79.71
2023-01-20T12:20:11.778Z,80.02
2023-01-20T12:25:22.808Z,79.25
2023-01-20T12:30:41.180Z,79.87
2023-01-20T12:35:48.201Z,80.18
2023-01-20T12:40:53.713Z,80.15
2023-01-20T12:46:12.026Z,79.63
2023-01-20T12:51:25.183Z,79.75
2023-01-20T12:56:39.975Z,80.77
2023-01-20T13:02:05.906Z,82.18
2023-01-20T13:07:18.414Z,82.85
2023-01-20T13:12:34.385Z,82.23
2023-01-20T13:17:41.466Z,82.62
2023-01-20T13:22:42.417Z,82.77
2023-01-20T13:27:46.036Z,82.16
2023-01-20T13:32:48.767Z,82.82
2023-01-20T13:37:51.884Z,81.95
2023-01-20T13:42:54.771Z,81.38
2023-01-20T13:48:01.158Z,81.81
2023-01-20T13:53:31.511Z,81.69
2023-01-20T13:58:45.425Z,81.53
2023-01-20T14:04:02.856Z,80.95
2023-01-20T14:09:08.505Z,80.80
2023-01-20T14:14:21.236Z,80.98
2023-01-20T14:19:25.398Z,81.02
2023-01-20T14:24:28.977Z,81.38
2023-01-20T14:29:31.019Z,81.33
2023-01-20T14:34:33.408Z,80.85
2023-01-20T14:39:34.500Z,81.48
2023-01-20T14:44:37.355Z,81.39
2023-01-20T14:49:39.599Z,81.57
2023-01-20T14:54:44.576Z,82.49
2023-01-20T14:59:46.574Z,82.41
2023-01-20T15:04:47.258Z,82.24
2023-01-20T15:09:55.394Z,81.63
2023-01-20T15:15:14.908Z,81.83
2023-01-20T15:20:28.629Z,82.00
2023-01-20T15:25:30.222Z,81.81
2023-01-20T15:30:32.290Z,82.42
2023-01-20T15:35:34.198Z,82.96
2023-01-20T15:40:35.676Z,82.56
2023-01-20T15:45:37.702Z,82.34
2023-01-20T15:50:38.411Z,82.10
2023-01-20T15:55:43.725Z,82.17
2023-01-20T16:00:45.772Z,82.18
2023-01-20T16:05:49.481Z,82.54
2023-01-20T16:10:50.341Z,82.83
2023-01-20T16:15:52.366Z,82.65
2023-01-20T16:20:53.228Z,83.39
2023-01-20T16:25:53.942Z,82.42
2023-01-20T16:30:57.674Z,82.46
2023-01-20T16:35:58.419Z,82.68
2023-01-20T16:41:04.655Z,82.93
2023-01-20T16:46:06.731Z,82.71
2023-01-20T16:51:08.060Z,82.03
2023-01-20T16:56:13.807Z,81.39
2023-01-20T17:01:20.818Z,80.70
2023-01-20T17:06:23.370Z,81.17
2023-01-20T17:11:26.632Z,80.63
2023-01-20T17:16:28.697Z,80.66
2023-01-20T17:21:31.026Z,81.28
2023-01-20T17:26:31.932Z,81.43
2023-01-20T17:31:36.703Z,82.00
2023-01-20T17:36:38.734Z,82.19
2023-01-20T17:41:39.434Z,81.51
2023-01-20T17:46:41.493Z,81.53
2023-01-20T17:51:42.701Z,80.65
2023-01-20T17:56:43.511Z,80.93
2023-01-20T18:01:45.557Z,80.43
2023-01-20T18:06:46.549Z,80.85
2023-01-20T18:11:47.360Z,80.73
2023-01-20T18:16:50.272Z,81.27
2023-01-20T18:21:51.091Z,81.01
2023-01-20T18:26:51.899Z,81.33
2023-01-20T18:31:54.604Z,80.84
2023-01-20T18:36:55.483Z,81.67
2023-01-20T18:41:56.423Z,81.48
2023-01-20T18:46:58.461Z,81.88
2023-01-20T18:51:59.211Z,82.27
2023-01-20T18:56:59.941Z,82.24
2023-01-20T19:02:02.072Z,82.02
2023-01-20T19:07:02.838Z,82.03
2023-01-20T19:12:03.525Z,82.36
2023-01-20T19:17:05.542Z,82.45
2023-01-20T19:22:06.263Z,82.44
2023-01-20T19:27:08.092Z,82.29
2023-01-20T19:32:10.515Z,82.22
2023-01-20T19:37:11.204Z,82.36
2023-01-20T19:42:11.893Z,82.42
2023-01-20T19:47:13.919Z,81.61
2023-01-20T19:52:14.788Z,81.94
2023-01-20T19:57:15.495Z,81.78
2023-01-20T20:02:17.577Z,81.65
2023-01-20T20:07:18.516Z,80.97
2023-01-20T20:12:19.258Z,81.51
2023-01-20T20:17:21.397Z,81.56
2023-01-20T20:22:22.100Z,82.37
2023-01-20T20:27:23.457Z,82.68
2023-01-20T20:32:27.369Z,83.10
2023-01-20T20:37:28.264Z,82.58
2023-01-20T20:42:30.248Z,82.81
2023-01-20T20:47:33.051Z,83.30
2023-01-20T20:52:33.820Z,83.27
2023-01-20T20:57:34.548Z,83.21
2023-01-20T21:02:36.661Z,83.87
2023-01-20T21:07:37.395Z,83.21
2023-01-20T21:12:38.071Z,82.77
2023-01-20T21:17:40.685Z,82.85
2023-01-20T21:22:41.468Z,82.98
2023-01-20T21:27:42.168Z,82.35
2023-01-20T21:32:44.380Z,82.47
2023-01-20T21:37:45.112Z,83.08
2023-01-20T21:42:45.832Z,83.19
2023-01-20T21:47:47.797Z,83.36
2023-01-20T21:52:49.619Z,81.91
2023-01-20T21:57:51.495Z,82.64
2023-01-20T22:02:53.728Z,82.16
2023-01-20T22:07:54.400Z,82.11
2023-01-20T22:12:56.064Z,81.37
2023-01-20T22:17:59.114Z,82.32
2023-01-20T22:22:59.782Z,81.59
2023-01-20T22:28:00.536Z,81.89
2023-01-20T22:33:02.543Z,82.06
2023-01-20T22:38:03.524Z,81.70
2023-01-20T22:43:04.228Z,81.47
2023-01-20T22:48:06.787Z,82.60
2023-01-20T22:53:07.451Z,83.22
2023-01-20T22:58:08.133Z,83.20
2023-01-20T23:03:10.294Z,82.15
2023-01-20T23:08:10.948Z,82.16
2023-01-20T23:13:11.614Z,82.67
2023-01-20T23:18:13.671Z,82.31
2023-01-20T23:23:14.358Z,82.04
2023-01-20T23:28:15.624Z,82.23
2023-01-20T23:33:17.611Z,81.67
2023-01-20T23:38:18.265Z,81.64
2023-01-20T23:43:18.909Z,82.96
2023-01-20T23:48:20.921Z,82.83
2023-01-20T23:53:21.790Z,82.82
2023-01-20T23:58:22.453Z,82.51
